sensor_id;sensor_type;location;lat;lon;timestamp;temperature;humidity
68813;DHT22;55808;48.112;11.552;2022-07-10T00:02:16;18.00;99.90
68813;DHT22;55808;48.112;11.552;2022-07-10T00:04:42;18.00;99.90
68813;DHT22;55808;48.112;11.552;2022-07-10T00:07:08;18.10;99.90
68813;DHT22;55808;48.112;11.552;2022-07-10T00:09:34;18.10;99.90
68813;DHT22;55808;48.112;11.552;2022-07-10T00:12:00;18.10;99.90
68813;DHT22;55808;48.112;11.552;2022-07-10T00:14:25;18.10;99.90
68813;DHT22;55808;48.112;11.552;2022-07-10T00:16:51;18.00;99.90
68813;DHT22;55808;48.112;11.552;2022-07-10T00:19:17;18.10;99.90
68813;DHT22;55808;48.112;11.552;2022-07-10T00:21:42;18.10;99.90
68813;DHT22;55808;48.112;11.552;2022-07-10T00:24:08;18.00;99.90
68813;DHT22;55808;48.112;11.552;2022-07-10T00:26:35;17.90;99.90
68813;DHT22;55808;48.112;11.552;2022-07-10T00:29:01;17.80;99.90
68813;DHT22;55808;48.112;11.552;2022-07-10T00:31:27;17.80;99.90
68813;DHT22;55808;48.112;11.552;2022-07-10T00:33:52;17.70;99.90
68813;DHT22;55808;48.112;11.552;2022-07-10T00:36:18;17.60;99.90
68813;DHT22;55808;48.112;11.552;2022-07-10T00:38:44;17.30;99.90
68813;DHT22;55808;48.112;11.552;2022-07-10T00:41:09;17.00;99.90
68813;DHT22;55808;48.112;11.552;2022-07-10T00:43:54;16.80;99.90
68813;DHT22;55808;48.112;11.552;2022-07-10T00:46:20;16.50;99.90
68813;DHT22;55808;48.112;11.552;2022-07-10T00:48:48;16.50;99.90
68813;DHT22;55808;48.112;11.552;2022-07-10T00:51:15;16.40;99.90
68813;DHT22;55808;48.112;11.552;2022-07-10T00:53:45;16.30;99.90
68813;DHT22;55808;48.112;11.552;2022-07-10T00:56:13;16.20;99.90
68813;DHT22;55808;48.112;11.552;2022-07-10T00:58:41;16.10;99.90
68813;DHT22;55808;48.112;11.552;2022-07-10T01:01:07;16.10;99.90
68813;DHT22;55808;48.112;11.552;2022-07-10T01:03:32;16.10;99.90
68813;DHT22;55808;48.112;11.552;2022-07-10T01:05:58;16.00;99.90
68813;DHT22;55808;48.112;11.552;2022-07-10T01:08:25;15.90;99.90
68813;DHT22;55808;48.112;11.552;2022-07-10T01:10:51;15.70;99.90
68813;DHT22;55808;48.112;11.552;2022-07-10T01:13:17;15.70;99.90
68813;DHT22;55808;48.112;11.552;2022-07-10T01:15:43;15.70;99.90
68813;DHT22;55808;48.112;11.552;2022-07-10T01:18:09;15.70;99.90
68813;DHT22;55808;48.112;11.552;2022-07-10T01:20:35;15.80;99.90
68813;DHT22;55808;48.112;11.552;2022-07-10T01:23:01;15.80;99.90
68813;DHT22;55808;48.112;11.552;2022-07-10T01:25:27;15.80;99.90
68813;DHT22;55808;48.112;11.552;2022-07-10T01:27:53;15.70;99.90
68813;DHT22;55808;48.112;11.552;2022-07-10T01:30:19;15.70;99.90
68813;DHT22;55808;48.112;11.552;2022-07-10T01:32:46;15.70;99.90
68813;DHT22;55808;48.112;11.552;2022-07-10T01:35:15;15.70;99.90
68813;DHT22;55808;48.112;11.552;2022-07-10T01:37:41;15.80;99.90
68813;DHT22;55808;48.112;11.552;2022-07-10T01:40:08;15.80;99.90
68813;DHT22;55808;48.112;11.552;2022-07-10T01:42:34;15.60;99.90
68813;DHT22;55808;48.112;11.552;2022-07-10T01:44:59;15.70;99.90
68813;DHT22;55808;48.112;11.552;2022-07-10T01:47:25;15.60;99.90
68813;DHT22;55808;48.112;11.552;2022-07-10T01:49:53;15.50;99.90
68813;DHT22;55808;48.112;11.552;2022-07-10T01:52:20;15.30;99.90
68813;DHT22;55808;48.112;11.552;2022-07-10T01:54:47;15.20;99.90
68813;DHT22;55808;48.112;11.552;2022-07-10T01:57:12;15.20;99.90
68813;DHT22;55808;48.112;11.552;2022-07-10T01:59:39;15.30;99.90
68813;DHT22;55808;48.112;11.552;2022-07-10T02:02:05;15.40;99.90
68813;DHT22;55808;48.112;11.552;2022-07-10T02:04:31;15.30;99.90
68813;DHT22;55808;48.112;11.552;2022-07-10T02:07:13;15.40;99.90
68813;DHT22;55808;48.112;11.552;2022-07-10T02:09:39;15.50;99.90
68813;DHT22;55808;48.112;11.552;2022-07-10T02:12:05;15.40;99.90
68813;DHT22;55808;48.112;11.552;2022-07-10T02:14:31;15.40;99.90
68813;DHT22;55808;48.112;11.552;2022-07-10T02:16:57;15.40;99.90
68813;DHT22;55808;48.112;11.552;2022-07-10T02:19:23;15.40;99.90
68813;DHT22;55808;48.112;11.552;2022-07-10T02:21:49;15.40;99.90
68813;DHT22;55808;48.112;11.552;2022-07-10T02:24:14;15.50;99.90
68813;DHT22;55808;48.112;11.552;2022-07-10T02:26:40;15.60;99.90
68813;DHT22;55808;48.112;11.552;2022-07-10T02:29:06;15.60;99.90
68813;DHT22;55808;48.112;11.552;2022-07-10T02:31:31;15.50;99.90
68813;DHT22;55808;48.112;11.552;2022-07-10T02:34:02;15.60;99.90
68813;DHT22;55808;48.112;11.552;2022-07-10T02:36:28;15.60;99.90
68813;DHT22;55808;48.112;11.552;2022-07-10T02:38:53;15.50;99.90
68813;DHT22;55808;48.112;11.552;2022-07-10T02:41:19;15.50;99.90
68813;DHT22;55808;48.112;11.552;2022-07-10T02:43:45;15.40;99.90
68813;DHT22;55808;48.112;11.552;2022-07-10T02:46:10;15.40;99.90
68813;DHT22;55808;48.112;11.552;2022-07-10T02:48:36;15.40;99.90
68813;DHT22;55808;48.112;11.552;2022-07-10T02:51:02;15.30;99.90
68813;DHT22;55808;48.112;11.552;2022-07-10T02:53:27;15.50;99.90
68813;DHT22;55808;48.112;11.552;2022-07-10T02:55:56;15.50;99.90
68813;DHT22;55808;48.112;11.552;2022-07-10T02:58:21;15.60;99.90
68813;DHT22;55808;48.112;11.552;2022-07-10T03:00:47;15.50;99.90
68813;DHT22;55808;48.112;11.552;2022-07-10T03:03:13;15.30;99.90
68813;DHT22;55808;48.112;11.552;2022-07-10T03:05:39;15.30;99.90
68813;DHT22;55808;48.112;11.552;2022-07-10T03:08:04;15.30;99.90
68813;DHT22;55808;48.112;11.552;2022-07-10T03:10:30;15.40;99.90
68813;DHT22;55808;48.112;11.552;2022-07-10T03:12:56;15.30;99.90
68813;DHT22;55808;48.112;11.552;2022-07-10T03:15:21;15.20;99.90
68813;DHT22;55808;48.112;11.552;2022-07-10T03:17:47;15.20;99.90
68813;DHT22;55808;48.112;11.552;2022-07-10T03:20:13;15.10;99.90
68813;DHT22;55808;48.112;11.552;2022-07-10T03:22:38;15.00;99.90
68813;DHT22;55808;48.112;11.552;2022-07-10T03:25:04;15.00;99.90
68813;DHT22;55808;48.112;11.552;2022-07-10T03:27:30;14.90;99.90
68813;DHT22;55808;48.112;11.552;2022-07-10T03:29:56;15.00;99.90
68813;DHT22;55808;48.112;11.552;2022-07-10T03:32:22;15.00;99.90
68813;DHT22;55808;48.112;11.552;2022-07-10T03:34:47;15.00;99.90
68813;DHT22;55808;48.112;11.552;2022-07-10T03:37:13;14.90;99.90
68813;DHT22;55808;48.112;11.552;2022-07-10T03:39:39;14.90;99.90
68813;DHT22;55808;48.112;11.552;2022-07-10T03:42:05;14.90;99.90
68813;DHT22;55808;48.112;11.552;2022-07-10T03:44:31;14.80;99.90
68813;DHT22;55808;48.112;11.552;2022-07-10T03:46:57;14.90;99.90
68813;DHT22;55808;48.112;11.552;2022-07-10T03:49:23;14.90;99.90
68813;DHT22;55808;48.112;11.552;2022-07-10T03:51:49;15.00;99.90
68813;DHT22;55808;48.112;11.552;2022-07-10T03:54:14;14.90;99.90
68813;DHT22;55808;48.112;11.552;2022-07-10T03:56:40;14.90;99.90
68813;DHT22;55808;48.112;11.552;2022-07-10T03:59:24;14.80;99.90
68813;DHT22;55808;48.112;11.552;2022-07-10T04:01:50;14.80;99.90
68813;DHT22;55808;48.112;11.552;2022-07-10T04:04:16;14.80;99.90
68813;DHT22;55808;48.112;11.552;2022-07-10T04:06:41;14.80;99.90
68813;DHT22;55808;48.112;11.552;2022-07-10T04:09:07;14.70;99.90
68813;DHT22;55808;48.112;11.552;2022-07-10T04:11:33;14.80;99.90
68813;DHT22;55808;48.112;11.552;2022-07-10T04:13:58;14.80;99.90
68813;DHT22;55808;48.112;11.552;2022-07-10T04:16:24;14.70;99.90
68813;DHT22;55808;48.112;11.552;2022-07-10T04:18:50;14.90;99.90
68813;DHT22;55808;48.112;11.552;2022-07-10T04:21:15;14.90;99.90
68813;DHT22;55808;48.112;11.552;2022-07-10T04:23:41;15.00;99.90
68813;DHT22;55808;48.112;11.552;2022-07-10T04:26:07;14.80;99.90
68813;DHT22;55808;48.112;11.552;2022-07-10T04:28:33;14.90;99.90
68813;DHT22;55808;48.112;11.552;2022-07-10T04:30:58;15.00;99.90
68813;DHT22;55808;48.112;11.552;2022-07-10T04:33:25;14.90;99.90
68813;DHT22;55808;48.112;11.552;2022-07-10T04:35:51;14.90;99.90
68813;DHT22;55808;48.112;11.552;2022-07-10T04:38:16;15.00;99.90
68813;DHT22;55808;48.112;11.552;2022-07-10T04:40:42;15.00;99.90
68813;DHT22;55808;48.112;11.552;2022-07-10T04:43:08;14.90;99.90
68813;DHT22;55808;48.112;11.552;2022-07-10T04:45:35;15.00;99.90
68813;DHT22;55808;48.112;11.552;2022-07-10T04:48:06;15.00;99.90
68813;DHT22;55808;48.112;11.552;2022-07-10T04:50:32;15.20;99.90
68813;DHT22;55808;48.112;11.552;2022-07-10T04:52:58;15.10;99.90
68813;DHT22;55808;48.112;11.552;2022-07-10T04:55:23;15.10;99.90
68813;DHT22;55808;48.112;11.552;2022-07-10T04:57:49;15.00;99.90
68813;DHT22;55808;48.112;11.552;2022-07-10T05:00:15;14.90;99.90
68813;DHT22;55808;48.112;11.552;2022-07-10T05:02:41;15.00;99.90
68813;DHT22;55808;48.112;11.552;2022-07-10T05:05:08;15.00;99.90
68813;DHT22;55808;48.112;11.552;2022-07-10T05:07:34;15.10;99.90
68813;DHT22;55808;48.112;11.552;2022-07-10T05:09:59;15.00;99.90
68813;DHT22;55808;48.112;11.552;2022-07-10T05:12:25;15.10;99.90
68813;DHT22;55808;48.112;11.552;2022-07-10T05:14:51;15.20;99.90
68813;DHT22;55808;48.112;11.552;2022-07-10T05:17:17;15.20;99.90
68813;DHT22;55808;48.112;11.552;2022-07-10T05:19:43;15.10;99.90
68813;DHT22;55808;48.112;11.552;2022-07-10T05:22:08;15.10;99.90
68813;DHT22;55808;48.112;11.552;2022-07-10T05:24:35;14.90;99.90
68813;DHT22;55808;48.112;11.552;2022-07-10T05:27:01;14.90;99.90
68813;DHT22;55808;48.112;11.552;2022-07-10T05:29:27;15.00;99.90
68813;DHT22;55808;48.112;11.552;2022-07-10T05:31:52;15.10;99.90
68813;DHT22;55808;48.112;11.552;2022-07-10T05:34:18;15.00;99.90
68813;DHT22;55808;48.112;11.552;2022-07-10T05:36:44;15.00;99.90
68813;DHT22;55808;48.112;11.552;2022-07-10T05:39:09;15.10;99.90
68813;DHT22;55808;48.112;11.552;2022-07-10T05:41:35;15.00;99.90
68813;DHT22;55808;48.112;11.552;2022-07-10T05:44:01;15.00;99.90
68813;DHT22;55808;48.112;11.552;2022-07-10T05:46:27;15.00;99.90
68813;DHT22;55808;48.112;11.552;2022-07-10T05:48:53;15.10;99.90
68813;DHT22;55808;48.112;11.552;2022-07-10T05:51:18;14.90;99.90
68813;DHT22;55808;48.112;11.552;2022-07-10T05:53:47;15.00;99.90
68813;DHT22;55808;48.112;11.552;2022-07-10T05:56:13;15.00;99.90
68813;DHT22;55808;48.112;11.552;2022-07-10T05:58:38;14.90;99.90
68813;DHT22;55808;48.112;11.552;2022-07-10T06:01:04;14.90;99.90
68813;DHT22;55808;48.112;11.552;2022-07-10T06:03:30;14.80;99.90
68813;DHT22;55808;48.112;11.552;2022-07-10T06:05:55;14.90;99.90
68813;DHT22;55808;48.112;11.552;2022-07-10T06:08:21;15.00;99.90
68813;DHT22;55808;48.112;11.552;2022-07-10T06:10:47;15.00;99.90
68813;DHT22;55808;48.112;11.552;2022-07-10T06:13:12;15.00;99.90
68813;DHT22;55808;48.112;11.552;2022-07-10T06:15:38;15.10;99.90
68813;DHT22;55808;48.112;11.552;2022-07-10T06:18:04;15.20;99.90
68813;DHT22;55808;48.112;11.552;2022-07-10T06:20:30;15.20;99.90
68813;DHT22;55808;48.112;11.552;2022-07-10T06:22:57;15.40;99.90
68813;DHT22;55808;48.112;11.552;2022-07-10T06:25:22;15.40;99.90
68813;DHT22;55808;48.112;11.552;2022-07-10T06:27:48;15.40;99.90
68813;DHT22;55808;48.112;11.552;2022-07-10T06:30:14;15.30;99.90
68813;DHT22;55808;48.112;11.552;2022-07-10T06:32:40;15.20;99.90
68813;DHT22;55808;48.112;11.552;2022-07-10T06:35:06;15.20;99.90
68813;DHT22;55808;48.112;11.552;2022-07-10T06:37:33;15.40;99.90
68813;DHT22;55808;48.112;11.552;2022-07-10T06:39:59;15.40;99.90
68813;DHT22;55808;48.112;11.552;2022-07-10T06:42:24;15.50;99.90
68813;DHT22;55808;48.112;11.552;2022-07-10T06:44:50;15.50;99.90
68813;DHT22;55808;48.112;11.552;2022-07-10T06:47:19;15.70;99.90
68813;DHT22;55808;48.112;11.552;2022-07-10T06:50:05;15.60;99.90
68813;DHT22;55808;48.112;11.552;2022-07-10T06:52:35;15.50;99.90
68813;DHT22;55808;48.112;11.552;2022-07-10T06:55:01;15.80;99.90
68813;DHT22;55808;48.112;11.552;2022-07-10T06:57:27;15.50;99.90
68813;DHT22;55808;48.112;11.552;2022-07-10T06:59:53;15.40;99.90
68813;DHT22;55808;48.112;11.552;2022-07-10T07:02:19;15.30;99.90
68813;DHT22;55808;48.112;11.552;2022-07-10T07:04:45;15.30;99.90
68813;DHT22;55808;48.112;11.552;2022-07-10T07:07:12;15.40;99.90
68813;DHT22;55808;48.112;11.552;2022-07-10T07:09:37;15.40;99.90
68813;DHT22;55808;48.112;11.552;2022-07-10T07:12:04;15.40;99.90
68813;DHT22;55808;48.112;11.552;2022-07-10T07:14:30;15.40;99.90
68813;DHT22;55808;48.112;11.552;2022-07-10T07:16:56;15.50;99.90
68813;DHT22;55808;48.112;11.552;2022-07-10T07:19:29;15.80;99.90
68813;DHT22;55808;48.112;11.552;2022-07-10T07:22:18;16.00;99.90
68813;DHT22;55808;48.112;11.552;2022-07-10T07:25:03;15.70;99.90
68813;DHT22;55808;48.112;11.552;2022-07-10T07:27:29;15.70;99.90
68813;DHT22;55808;48.112;11.552;2022-07-10T07:29:54;15.70;99.90
68813;DHT22;55808;48.112;11.552;2022-07-10T07:32:20;15.80;99.90
68813;DHT22;55808;48.112;11.552;2022-07-10T07:34:46;15.70;99.90
68813;DHT22;55808;48.112;11.552;2022-07-10T07:37:11;15.60;99.90
68813;DHT22;55808;48.112;11.552;2022-07-10T07:39:37;15.50;99.90
68813;DHT22;55808;48.112;11.552;2022-07-10T07:42:03;15.20;99.90
68813;DHT22;55808;48.112;11.552;2022-07-10T07:44:29;15.30;99.90
68813;DHT22;55808;48.112;11.552;2022-07-10T07:46:55;15.20;99.90
68813;DHT22;55808;48.112;11.552;2022-07-10T07:49:21;15.30;99.90
68813;DHT22;55808;48.112;11.552;2022-07-10T07:51:46;15.40;99.90
68813;DHT22;55808;48.112;11.552;2022-07-10T07:54:14;15.60;99.90
68813;DHT22;55808;48.112;11.552;2022-07-10T07:56:40;15.70;99.90
68813;DHT22;55808;48.112;11.552;2022-07-10T07:59:06;15.70;99.90
68813;DHT22;55808;48.112;11.552;2022-07-10T08:01:32;15.80;99.90
68813;DHT22;55808;48.112;11.552;2022-07-10T08:03:57;16.00;99.90
68813;DHT22;55808;48.112;11.552;2022-07-10T08:06:24;15.90;99.90
68813;DHT22;55808;48.112;11.552;2022-07-10T08:08:49;15.90;99.90
68813;DHT22;55808;48.112;11.552;2022-07-10T08:11:16;16.00;99.90
68813;DHT22;55808;48.112;11.552;2022-07-10T08:13:42;16.00;99.90
68813;DHT22;55808;48.112;11.552;2022-07-10T08:16:08;15.90;99.90
68813;DHT22;55808;48.112;11.552;2022-07-10T08:18:34;16.00;99.90
68813;DHT22;55808;48.112;11.552;2022-07-10T08:21:01;16.00;99.90
68813;DHT22;55808;48.112;11.552;2022-07-10T08:23:26;16.20;99.90
68813;DHT22;55808;48.112;11.552;2022-07-10T08:25:52;16.00;99.90
68813;DHT22;55808;48.112;11.552;2022-07-10T08:28:17;16.10;99.90
68813;DHT22;55808;48.112;11.552;2022-07-10T08:30:43;16.10;99.90
68813;DHT22;55808;48.112;11.552;2022-07-10T08:33:10;16.30;99.90
68813;DHT22;55808;48.112;11.552;2022-07-10T08:35:36;16.20;99.90
68813;DHT22;55808;48.112;11.552;2022-07-10T08:38:01;16.10;99.90
68813;DHT22;55808;48.112;11.552;2022-07-10T08:40:34;16.20;99.90
68813;DHT22;55808;48.112;11.552;2022-07-10T08:43:00;16.50;99.90
68813;DHT22;55808;48.112;11.552;2022-07-10T08:45:28;16.60;99.90
68813;DHT22;55808;48.112;11.552;2022-07-10T08:47:57;16.80;99.90
68813;DHT22;55808;48.112;11.552;2022-07-10T08:50:29;16.80;99.90
68813;DHT22;55808;48.112;11.552;2022-07-10T08:53:08;16.60;99.90
68813;DHT22;55808;48.112;11.552;2022-07-10T08:55:35;16.60;99.90
68813;DHT22;55808;48.112;11.552;2022-07-10T08:58:03;16.50;99.90
68813;DHT22;55808;48.112;11.552;2022-07-10T09:00:32;16.50;99.90
68813;DHT22;55808;48.112;11.552;2022-07-10T09:02:57;16.50;99.90
68813;DHT22;55808;48.112;11.552;2022-07-10T09:05:24;16.50;99.90
68813;DHT22;55808;48.112;11.552;2022-07-10T09:07:49;16.80;99.90
68813;DHT22;55808;48.112;11.552;2022-07-10T09:10:16;16.90;99.90
68813;DHT22;55808;48.112;11.552;2022-07-10T09:12:58;16.50;99.90
68813;DHT22;55808;48.112;11.552;2022-07-10T09:15:26;16.50;99.90
68813;DHT22;55808;48.112;11.552;2022-07-10T09:17:56;16.50;99.90
68813;DHT22;55808;48.112;11.552;2022-07-10T09:20:26;16.70;99.90
68813;DHT22;55808;48.112;11.552;2022-07-10T09:22:58;16.80;99.90
68813;DHT22;55808;48.112;11.552;2022-07-10T09:25:30;17.10;99.90
68813;DHT22;55808;48.112;11.552;2022-07-10T09:27:56;16.90;99.90
68813;DHT22;55808;48.112;11.552;2022-07-10T09:30:37;17.30;99.90
68813;DHT22;55808;48.112;11.552;2022-07-10T09:36:11;17.20;99.90
68813;DHT22;55808;48.112;11.552;2022-07-10T09:41:12;17.30;99.90
68813;DHT22;55808;48.112;11.552;2022-07-10T09:46:24;17.00;99.90
68813;DHT22;55808;48.112;11.552;2022-07-10T09:49:04;17.10;99.90
68813;DHT22;55808;48.112;11.552;2022-07-10T09:51:31;17.00;99.90
68813;DHT22;55808;48.112;11.552;2022-07-10T09:54:04;17.30;99.90
68813;DHT22;55808;48.112;11.552;2022-07-10T09:56:40;17.50;99.90
68813;DHT22;55808;48.112;11.552;2022-07-10T09:59:13;18.00;99.90
68813;DHT22;55808;48.112;11.552;2022-07-10T10:01:49;17.70;97.40
68813;DHT22;55808;48.112;11.552;2022-07-10T10:04:17;17.70;96.60
68813;DHT22;55808;48.112;11.552;2022-07-10T10:07:07;17.60;95.30
68813;DHT22;55808;48.112;11.552;2022-07-10T10:09:38;17.50;97.20
68813;DHT22;55808;48.112;11.552;2022-07-10T10:12:17;17.60;98.30
68813;DHT22;55808;48.112;11.552;2022-07-10T10:14:47;17.70;99.60
68813;DHT22;55808;48.112;11.552;2022-07-10T10:17:15;17.70;98.20
68813;DHT22;55808;48.112;11.552;2022-07-10T10:19:44;17.90;99.60
68813;DHT22;55808;48.112;11.552;2022-07-10T10:22:29;18.00;98.90
68813;DHT22;55808;48.112;11.552;2022-07-10T10:24:57;18.30;96.10
68813;DHT22;55808;48.112;11.552;2022-07-10T10:27:24;18.40;92.00
68813;DHT22;55808;48.112;11.552;2022-07-10T10:29:53;18.30;91.90
68813;DHT22;55808;48.112;11.552;2022-07-10T10:32:22;18.70;92.00
68813;DHT22;55808;48.112;11.552;2022-07-10T10:34:49;18.60;91.60
68813;DHT22;55808;48.112;11.552;2022-07-10T10:37:39;18.80;92.70
68813;DHT22;55808;48.112;11.552;2022-07-10T10:40:11;18.90;91.40
68813;DHT22;55808;48.112;11.552;2022-07-10T10:42:55;18.60;91.30
68813;DHT22;55808;48.112;11.552;2022-07-10T10:45:30;19.70;87.10
68813;DHT22;55808;48.112;11.552;2022-07-10T10:48:09;19.00;89.00
68813;DHT22;55808;48.112;11.552;2022-07-10T10:58:43;20.90;74.70
68813;DHT22;55808;48.112;11.552;2022-07-10T11:09:32;19.70;81.20
68813;DHT22;55808;48.112;11.552;2022-07-10T11:14:37;18.70;84.20
68813;DHT22;55808;48.112;11.552;2022-07-10T11:17:05;18.60;84.70
68813;DHT22;55808;48.112;11.552;2022-07-10T11:19:32;18.70;85.90
68813;DHT22;55808;48.112;11.552;2022-07-10T11:22:49;18.80;84.40
68813;DHT22;55808;48.112;11.552;2022-07-10T11:28:08;19.10;84.10
68813;DHT22;55808;48.112;11.552;2022-07-10T11:30:53;19.30;85.20
68813;DHT22;55808;48.112;11.552;2022-07-10T11:33:20;19.20;80.70
68813;DHT22;55808;48.112;11.552;2022-07-10T11:35:48;18.70;83.10
68813;DHT22;55808;48.112;11.552;2022-07-10T11:38:26;19.40;83.20
68813;DHT22;55808;48.112;11.552;2022-07-10T11:40:52;20.10;79.30
68813;DHT22;55808;48.112;11.552;2022-07-10T11:43:20;20.60;75.40
68813;DHT22;55808;48.112;11.552;2022-07-10T11:45:50;21.40;76.10
68813;DHT22;55808;48.112;11.552;2022-07-10T11:48:17;21.00;74.70
68813;DHT22;55808;48.112;11.552;2022-07-10T11:50:43;21.50;74.40
68813;DHT22;55808;48.112;11.552;2022-07-10T11:53:09;20.50;73.50
68813;DHT22;55808;48.112;11.552;2022-07-10T11:55:37;20.70;74.60
68813;DHT22;55808;48.112;11.552;2022-07-10T11:58:17;20.30;75.70
68813;DHT22;55808;48.112;11.552;2022-07-10T12:00:44;19.50;77.50
68813;DHT22;55808;48.112;11.552;2022-07-10T12:03:20;19.70;78.40
68813;DHT22;55808;48.112;11.552;2022-07-10T12:05:47;19.80;77.80
68813;DHT22;55808;48.112;11.552;2022-07-10T12:08:14;20.20;77.20
68813;DHT22;55808;48.112;11.552;2022-07-10T12:10:40;20.70;76.60
68813;DHT22;55808;48.112;11.552;2022-07-10T12:13:08;20.30;73.70
68813;DHT22;55808;48.112;11.552;2022-07-10T12:15:37;20.70;75.00
68813;DHT22;55808;48.112;11.552;2022-07-10T12:18:05;21.40;73.10
68813;DHT22;55808;48.112;11.552;2022-07-10T12:20:31;21.00;71.10
68813;DHT22;55808;48.112;11.552;2022-07-10T12:22:57;21.30;73.90
68813;DHT22;55808;48.112;11.552;2022-07-10T12:25:23;21.90;70.50
68813;DHT22;55808;48.112;11.552;2022-07-10T12:27:55;20.70;71.00
68813;DHT22;55808;48.112;11.552;2022-07-10T12:30:22;20.00;73.70
68813;DHT22;55808;48.112;11.552;2022-07-10T12:32:48;19.80;73.70
68813;DHT22;55808;48.112;11.552;2022-07-10T12:35:13;20.10;76.00
68813;DHT22;55808;48.112;11.552;2022-07-10T12:37:47;20.20;74.50
68813;DHT22;55808;48.112;11.552;2022-07-10T12:40:30;20.20;72.60
68813;DHT22;55808;48.112;11.552;2022-07-10T12:43:05;20.70;70.60
68813;DHT22;55808;48.112;11.552;2022-07-10T12:45:32;21.10;72.30
68813;DHT22;55808;48.112;11.552;2022-07-10T12:47:58;21.50;68.60
68813;DHT22;55808;48.112;11.552;2022-07-10T12:50:23;21.60;69.90
68813;DHT22;55808;48.112;11.552;2022-07-10T12:53:07;21.30;70.90
68813;DHT22;55808;48.112;11.552;2022-07-10T12:55:40;20.70;69.50
68813;DHT22;55808;48.112;11.552;2022-07-10T12:58:10;20.90;70.00
68813;DHT22;55808;48.112;11.552;2022-07-10T13:00:46;20.90;69.40
68813;DHT22;55808;48.112;11.552;2022-07-10T13:03:21;21.30;68.60
68813;DHT22;55808;48.112;11.552;2022-07-10T13:05:50;21.90;68.10
68813;DHT22;55808;48.112;11.552;2022-07-10T13:08:17;22.10;67.40
68813;DHT22;55808;48.112;11.552;2022-07-10T13:10:52;22.20;67.00
68813;DHT22;55808;48.112;11.552;2022-07-10T13:13:18;21.30;67.00
68813;DHT22;55808;48.112;11.552;2022-07-10T13:15:45;21.20;66.60
68813;DHT22;55808;48.112;11.552;2022-07-10T13:18:24;20.70;69.10
68813;DHT22;55808;48.112;11.552;2022-07-10T13:20:52;20.20;70.00
68813;DHT22;55808;48.112;11.552;2022-07-10T13:23:19;21.10;70.30
68813;DHT22;55808;48.112;11.552;2022-07-10T13:25:56;22.10;67.40
68813;DHT22;55808;48.112;11.552;2022-07-10T13:28:22;21.50;66.40
68813;DHT22;55808;48.112;11.552;2022-07-10T13:30:48;21.50;66.40
68813;DHT22;55808;48.112;11.552;2022-07-10T13:33:14;21.80;68.80
68813;DHT22;55808;48.112;11.552;2022-07-10T13:35:40;21.00;67.10
68813;DHT22;55808;48.112;11.552;2022-07-10T13:38:06;21.50;65.90
68813;DHT22;55808;48.112;11.552;2022-07-10T13:40:34;21.90;64.40
68813;DHT22;55808;48.112;11.552;2022-07-10T13:43:00;22.30;63.10
68813;DHT22;55808;48.112;11.552;2022-07-10T13:45:26;22.20;62.10
68813;DHT22;55808;48.112;11.552;2022-07-10T13:47:57;22.60;63.50
68813;DHT22;55808;48.112;11.552;2022-07-10T13:50:24;22.30;63.70
68813;DHT22;55808;48.112;11.552;2022-07-10T13:52:50;21.10;64.20
68813;DHT22;55808;48.112;11.552;2022-07-10T13:55:16;22.10;63.10
68813;DHT22;55808;48.112;11.552;2022-07-10T13:57:42;22.20;62.10
68813;DHT22;55808;48.112;11.552;2022-07-10T14:00:08;22.00;61.30
68813;DHT22;55808;48.112;11.552;2022-07-10T14:02:34;22.00;63.00
68813;DHT22;55808;48.112;11.552;2022-07-10T14:05:00;23.10;61.90
68813;DHT22;55808;48.112;11.552;2022-07-10T14:07:25;22.80;61.10
68813;DHT22;55808;48.112;11.552;2022-07-10T14:09:51;22.70;60.00
68813;DHT22;55808;48.112;11.552;2022-07-10T14:12:17;21.70;60.40
68813;DHT22;55808;48.112;11.552;2022-07-10T14:14:43;22.20;62.70
68813;DHT22;55808;48.112;11.552;2022-07-10T14:17:09;22.20;60.60
68813;DHT22;55808;48.112;11.552;2022-07-10T14:19:34;21.60;59.80
68813;DHT22;55808;48.112;11.552;2022-07-10T14:22:03;21.20;63.10
68813;DHT22;55808;48.112;11.552;2022-07-10T14:24:29;22.10;61.40
68813;DHT22;55808;48.112;11.552;2022-07-10T14:26:55;22.70;60.70
68813;DHT22;55808;48.112;11.552;2022-07-10T14:29:20;22.70;59.80
68813;DHT22;55808;48.112;11.552;2022-07-10T14:31:46;22.50;58.90
68813;DHT22;55808;48.112;11.552;2022-07-10T14:34:15;22.40;59.50
68813;DHT22;55808;48.112;11.552;2022-07-10T14:36:41;22.70;59.60
68813;DHT22;55808;48.112;11.552;2022-07-10T14:39:06;21.30;59.10
68813;DHT22;55808;48.112;11.552;2022-07-10T14:41:32;21.80;60.30
68813;DHT22;55808;48.112;11.552;2022-07-10T14:43:58;22.50;60.50
68813;DHT22;55808;48.112;11.552;2022-07-10T14:46:24;22.20;58.60
68813;DHT22;55808;48.112;11.552;2022-07-10T14:48:50;22.20;58.90
68813;DHT22;55808;48.112;11.552;2022-07-10T14:51:16;22.70;58.60
68813;DHT22;55808;48.112;11.552;2022-07-10T14:53:42;22.50;58.50
68813;DHT22;55808;48.112;11.552;2022-07-10T14:56:11;22.10;58.00
68813;DHT22;55808;48.112;11.552;2022-07-10T14:58:37;22.00;58.80
68813;DHT22;55808;48.112;11.552;2022-07-10T15:01:03;21.90;58.10
68813;DHT22;55808;48.112;11.552;2022-07-10T15:03:29;22.00;58.40
68813;DHT22;55808;48.112;11.552;2022-07-10T15:05:55;21.90;58.50
68813;DHT22;55808;48.112;11.552;2022-07-10T15:08:25;22.20;58.60
68813;DHT22;55808;48.112;11.552;2022-07-10T15:10:51;21.90;58.40
68813;DHT22;55808;48.112;11.552;2022-07-10T15:13:17;21.60;58.10
68813;DHT22;55808;48.112;11.552;2022-07-10T15:15:43;21.70;57.70
68813;DHT22;55808;48.112;11.552;2022-07-10T15:18:09;21.80;57.60
68813;DHT22;55808;48.112;11.552;2022-07-10T15:20:35;22.10;58.50
68813;DHT22;55808;48.112;11.552;2022-07-10T15:23:05;21.60;57.50
68813;DHT22;55808;48.112;11.552;2022-07-10T15:25:31;21.60;57.70
68813;DHT22;55808;48.112;11.552;2022-07-10T15:27:56;21.80;58.50
68813;DHT22;55808;48.112;11.552;2022-07-10T15:30:22;21.70;57.30
68813;DHT22;55808;48.112;11.552;2022-07-10T15:32:48;21.60;57.70
68813;DHT22;55808;48.112;11.552;2022-07-10T15:35:14;21.80;57.70
68813;DHT22;55808;48.112;11.552;2022-07-10T15:37:40;21.50;57.00
68813;DHT22;55808;48.112;11.552;2022-07-10T15:40:06;21.20;58.00
68813;DHT22;55808;48.112;11.552;2022-07-10T15:42:32;21.10;57.40
68813;DHT22;55808;48.112;11.552;2022-07-10T15:44:58;21.40;58.90
68813;DHT22;55808;48.112;11.552;2022-07-10T15:47:23;21.20;57.20
68813;DHT22;55808;48.112;11.552;2022-07-10T15:49:49;21.10;57.30